메인 페이지
METAR-TAF:

METAR-TAF

공항 :

Waco, 텍사스, 미국

위도: 31-37-02N, 경도: 097-13-40W, 고도: 157m

현재 날씨관측

예보는 23분 전, 09:58시(UTC)에 발표되었습니다.
남남동8kt
온도 23°C
습도 94%
기압 1015 hPa
시정: 16.1km
고도 900ft 상공 구름 많음
고도 1700ft 상공 흐림

METAR: KACT 300958Z AUTO 15008KT 10SM BKN009 OVC017 23/22 A2996 RMK AO2 T02330222

시각: 05:21 (10:21 UTC)

예보

예보는 1 시간 26분 전, 08:55시(UTC)에 발표되었습니다.
예보 대상 시간: 30일 09시부터 31일 06시까지 (UTC)
동남동7kt
시정: 10km
고도 25000ft 상공 구름 보통
30일 1000시부터 (UTC)
동남동6kt
시정: 10km
고도 1100ft 상공 구름 많음
일시적
30일 13시부터 30일 15시까지 (UTC)
고도 800ft 상공 구름 많음
30일 1600시부터 (UTC)
남남동6kt
시정: 10km
고도 2200ft 상공 구름 많음
30일 1800시부터 (UTC)
남남동6kt
시정: 10km
고도 3000ft 상공 구름 보통
30일 2200시부터 (UTC)
동남동9kt
시정: 10km
고도 10000ft 상공 구름 보통
고도 25000ft 상공 구름 많음
시계 내 소나기
31일 0500시부터 (UTC)
남남동8kt
시정: 10km
고도 4500ft 상공 구름 많음, 적란운.
시계 내 뇌우,

TAF: KACT 300855Z 3009/3106 11007KT P6SM SCT250 FM301000 12006KT P6SM BKN011 TEMPO 3013/3015 BKN008 FM301600 16006KT P6SM BKN022 FM301800 16006KT P6SM SCT030 FM302200 12009KT P6SM VCSH SCT100 BKN250 FM310500 15008KT P6SM VCTS BKN045CB

4,000개 이상의 공항 관측 자료 및 예보 (METAR 및 TAF 보고).

지도상에서 검색 가능한 기상관측소가 노란 점과 빨간 점으로 표시되어 있습니다.

기상관측소 명을 보려면 표시 위로 마우스를 이동하세요.

날씨 관측과 예보를 보려면 클릭하세요.

지도 변경 : 확대하려면 엑스 표시가 있는 녹색 버튼, 축소하려면 빼기 표시가 있는 녹색 버튼, 다음 페이지의 지도를 보려면 녹색 화살표를 클릭하세요.


METAR-TAF: